createdAt,value
2023-01-12T00:02:07.630Z,97549.66
2023-01-12T00:04:34.868Z,97534.66
2023-01-12T00:07:04.443Z,97532.66
2023-01-12T00:09:31.154Z,97530.63
2023-01-12T00:11:58.329Z,97524.44
2023-01-12T00:14:25.038Z,97532.66
2023-01-12T00:16:51.583Z,97530.63
2023-01-12T00:19:19.201Z,97529.19
2023-01-12T00:21:59.554Z,97529.78
2023-01-12T00:24:27.165Z,97536.69
2023-01-12T00:26:54.339Z,97521.56
2023-01-12T00:29:21.115Z,97513.34
2023-01-12T00:31:47.715Z,97507.88
2023-01-12T00:34:14.771Z,97510.59
2023-01-12T00:36:41.434Z,97506.44
2023-01-12T00:39:08.063Z,97519.41
2023-01-12T00:41:54.921Z,97499.50
2023-01-12T00:44:40.216Z,97507.00
2023-01-12T00:47:07.724Z,97507.00
2023-01-12T00:49:34.893Z,97526.00
2023-01-12T00:52:01.545Z,97504.69
2023-01-12T00:54:28.153Z,97523.28
2023-01-12T00:56:54.779Z,97526.72
2023-01-12T00:59:21.365Z,97519.22
2023-01-12T01:01:48.117Z,97501.50
2023-01-12T01:04:14.791Z,97511.75
2023-01-12T01:06:41.511Z,97511.59
2023-01-12T01:09:08.173Z,97519.09
2023-01-12T01:11:34.859Z,97503.25
2023-01-12T01:14:02.149Z,97504.69
2023-01-12T01:16:29.795Z,97509.59
2023-01-12T01:18:57.031Z,97507.56
2023-01-12T01:21:24.690Z,97506.84
2023-01-12T01:23:51.456Z,97522.56
2023-01-12T01:26:19.564Z,97534.81
2023-01-12T01:28:46.355Z,97522.41
2023-01-12T01:31:22.911Z,97516.19
2023-01-12T01:33:49.907Z,97515.66
2023-01-12T01:36:16.936Z,97499.94
2023-01-12T01:38:44.604Z,97511.59
2023-01-12T01:41:16.047Z,97497.19
2023-01-12T01:43:50.440Z,97500.50
2023-01-12T01:46:19.588Z,97496.31
2023-01-12T01:48:46.267Z,97479.88
2023-01-12T01:51:14.308Z,97475.72
2023-01-12T01:53:41.506Z,97469.53
2023-01-12T01:56:09.611Z,97479.63
2023-01-12T01:58:49.018Z,97477.72
2023-01-12T02:01:15.692Z,97471.53
2023-01-12T02:03:42.301Z,97468.81
2023-01-12T02:06:09.014Z,97487.25
2023-01-12T02:08:41.390Z,97486.53
2023-01-12T02:11:28.038Z,97493.44
2023-01-12T02:14:13.481Z,97514.03
2023-01-12T02:16:41.023Z,97518.06
2023-01-12T02:19:13.559Z,97515.34
2023-01-12T02:21:52.338Z,97498.78
2023-01-12T02:24:19.312Z,97507.53
2023-01-12T02:27:06.714Z,97495.88
2023-01-12T02:29:51.975Z,97488.38
2023-01-12T02:32:30.569Z,97479.44
2023-01-12T02:35:06.449Z,97457.56
2023-01-12T02:37:36.748Z,97469.22
2023-01-12T02:40:07.406Z,97457.72
2023-01-12T02:42:43.437Z,97461.03
2023-01-12T02:45:10.124Z,97460.59
2023-01-12T02:47:45.755Z,97462.44
2023-01-12T02:50:14.171Z,97470.53
2023-01-12T02:52:40.887Z,97464.31
2023-01-12T02:55:07.883Z,97467.78
2023-01-12T02:57:34.482Z,97474.56
2023-01-12T03:00:01.685Z,97470.53
2023-01-12T03:02:28.531Z,97469.81
2023-01-12T03:04:55.333Z,97470.38
2023-01-12T03:07:28.661Z,97462.88
2023-01-12T03:10:00.465Z,97459.44
2023-01-12T03:12:28.657Z,97453.25
2023-01-12T03:14:55.243Z,97452.53
2023-01-12T03:17:32.870Z,97443.72
2023-01-12T03:20:01.029Z,97440.28
2023-01-12T03:22:27.621Z,97447.06
2023-01-12T03:24:55.522Z,97441.56
2023-01-12T03:27:29.983Z,97432.63
2023-01-12T03:30:04.802Z,97441.56
2023-01-12T03:32:36.263Z,97449.78
2023-01-12T03:35:11.859Z,97451.22
2023-01-12T03:37:42.967Z,97450.34
2023-01-12T03:40:11.163Z,97448.31
2023-01-12T03:42:38.820Z,97454.50
2023-01-12T03:45:14.612Z,97451.78
2023-01-12T03:47:41.482Z,97453.25
2023-01-12T03:50:18.124Z,97447.75
2023-01-12T03:52:45.259Z,97449.78
2023-01-12T03:55:13.190Z,97448.91
2023-01-12T03:57:39.866Z,97450.78
2023-01-12T04:00:07.635Z,97452.94
2023-01-12T04:02:39.215Z,97457.84
2023-01-12T04:05:06.736Z,97457.84
2023-01-12T04:07:33.834Z,97457.13
2023-01-12T04:10:00.558Z,97462.72
2023-01-12T04:12:27.134Z,97451.78
2023-01-12T04:14:53.793Z,97453.25
2023-01-12T04:17:24.993Z,97455.97
2023-01-12T04:19:52.044Z,97449.22
2023-01-12T04:22:37.226Z,97442.28
2023-01-12T04:25:04.384Z,97428.59
2023-01-12T04:27:30.969Z,97434.09
2023-01-12T04:29:57.593Z,97430.63
2023-01-12T04:32:24.239Z,97436.81
2023-01-12T04:34:50.907Z,97429.88
2023-01-12T04:37:17.486Z,97433.38
2023-01-12T04:39:44.132Z,97421.66
2023-01-12T04:42:30.637Z,97422.97
2023-01-12T04:44:57.394Z,97408.56
2023-01-12T04:47:23.966Z,97418.94
2023-01-12T04:49:50.615Z,97412.03
2023-01-12T04:52:17.209Z,97420.22
2023-01-12T04:54:43.949Z,97413.31
2023-01-12T04:57:10.488Z,97413.91
2023-01-12T04:59:37.145Z,97396.75
2023-01-12T05:02:03.807Z,97394.03
2023-01-12T05:04:30.631Z,97398.19
2023-01-12T05:06:57.400Z,97391.28
2023-01-12T05:09:42.474Z,97392.72
2023-01-12T05:12:09.268Z,97374.88
2023-01-12T05:14:35.796Z,97382.38
2023-01-12T05:17:02.593Z,97378.03
2023-01-12T05:19:29.428Z,97377.31
2023-01-12T05:21:56.293Z,97368.53
2023-01-12T05:24:22.943Z,97361.91
2023-01-12T05:26:49.730Z,97357.72
2023-01-12T05:29:16.855Z,97353.69
2023-01-12T05:31:46.746Z,97353.69
2023-01-12T05:34:14.003Z,97356.56
2023-01-12T05:36:42.720Z,97354.41
2023-01-12T05:39:09.480Z,97381.06
2023-01-12T05:41:36.034Z,97368.09
2023-01-12T05:44:02.733Z,97365.34
2023-01-12T05:46:30.266Z,97355.13
2023-01-12T05:48:58.230Z,97345.63
2023-01-12T05:51:26.760Z,97343.59
2023-01-12T05:54:19.509Z,97336.69
2023-01-12T05:56:53.103Z,97341.44
2023-01-12T05:59:20.994Z,97340.72
2023-01-12T06:01:48.212Z,97327.75
2023-01-12T06:04:16.121Z,97325.03
2023-01-12T06:06:46.584Z,97320.84
2023-01-12T06:09:13.763Z,97321.88
2023-01-12T06:12:01.657Z,97308.72
2023-01-12T06:14:30.689Z,97311.47
2023-01-12T06:16:57.330Z,97310.75
2023-01-12T06:19:23.958Z,97307.31
2023-01-12T06:21:51.875Z,97300.53
2023-01-12T06:24:19.021Z,97304.84
2023-01-12T06:26:46.439Z,97305.00
2023-01-12T06:29:13.721Z,97287.84
2023-01-12T06:31:40.848Z,97301.69
2023-01-12T06:34:10.083Z,97315.22
2023-01-12T06:36:36.716Z,97323.44
2023-01-12T06:39:03.546Z,97316.38
2023-01-12T06:41:48.740Z,97319.91
2023-01-12T06:44:16.582Z,97311.28
2023-01-12T06:46:43.163Z,97325.03
2023-01-12T06:49:09.814Z,97298.97
2023-01-12T06:51:36.690Z,97295.59
2023-01-12T06:54:03.322Z,97312.97
2023-01-12T06:56:30.032Z,97320.75
2023-01-12T06:58:56.605Z,97299.28
2023-01-12T07:01:25.128Z,97311.69
2023-01-12T07:03:51.812Z,97343.69
2023-01-12T07:06:18.460Z,97338.66
2023-01-12T07:08:44.997Z,97331.59
2023-01-12T07:11:16.951Z,97344.28
2023-01-12T07:13:43.621Z,97344.28
2023-01-12T07:16:10.264Z,97341.63
2023-01-12T07:18:37.284Z,97346.53
2023-01-12T07:21:04.611Z,97347.66
2023-01-12T07:23:31.291Z,97336.59
2023-01-12T07:25:58.105Z,97334.72
2023-01-12T07:28:24.823Z,97333.94
2023-01-12T07:30:51.486Z,97348.72
2023-01-12T07:33:18.852Z,97362.28
2023-01-12T07:35:45.525Z,97377.75
2023-01-12T07:38:12.280Z,97363.66
2023-01-12T07:40:38.867Z,97350.25
2023-01-12T07:43:07.074Z,97364.25
2023-01-12T07:45:35.860Z,97357.59
2023-01-12T07:48:02.467Z,97347.31
2023-01-12T07:50:29.390Z,97352.72
2023-01-12T07:52:56.178Z,97353.44
2023-01-12T07:55:22.753Z,97349.97
2023-01-12T07:57:55.388Z,97344.28
2023-01-12T08:00:25.075Z,97336.34
2023-01-12T08:02:55.533Z,97323.34
2023-01-12T08:05:23.276Z,97343.81
2023-01-12T08:07:49.983Z,97332.50
2023-01-12T08:10:16.932Z,97329.84
2023-01-12T08:12:43.591Z,97316.69
2023-01-12T08:15:10.681Z,97319.66
2023-01-12T08:17:44.635Z,97313.16
2023-01-12T08:20:14.319Z,97326.81
2023-01-12T08:22:42.193Z,97305.78
2023-01-12T08:25:16.947Z,97325.03
2023-01-12T08:27:46.192Z,97326.88
2023-01-12T08:30:14.200Z,97313.97
2023-01-12T08:32:41.624Z,97324.41
2023-01-12T08:35:08.954Z,97352.25
2023-01-12T08:37:35.704Z,97327.25
2023-01-12T08:40:05.623Z,97329.22
2023-01-12T08:42:32.972Z,97318.84
2023-01-12T08:44:59.782Z,97306.16
2023-01-12T08:47:30.698Z,97306.09
2023-01-12T08:49:59.207Z,97334.91
2023-01-12T08:52:26.123Z,97348.22
2023-01-12T08:54:52.950Z,97353.69
2023-01-12T08:57:19.910Z,97353.13
2023-01-12T08:59:46.686Z,97347.66
2023-01-12T09:02:14.032Z,97358.75
2023-01-12T09:04:40.948Z,97359.38
2023-01-12T09:07:08.269Z,97355.88
2023-01-12T09:09:34.997Z,97369.56
2023-01-12T09:12:01.636Z,97360.81
2023-01-12T09:14:28.474Z,97348.78
2023-01-12T09:16:57.093Z,97337.72
2023-01-12T09:19:24.283Z,97327.09
2023-01-12T09:21:50.947Z,97326.84
2023-01-12T09:24:17.623Z,97313.28
2023-01-12T09:26:44.921Z,97327.09
2023-01-12T09:29:12.006Z,97306.69
2023-01-12T09:31:39.158Z,97297.53
2023-01-12T09:34:05.941Z,97322.09
2023-01-12T09:36:39.949Z,97308.91
2023-01-12T09:39:10.292Z,97332.44
2023-01-12T09:41:59.059Z,97354.75
2023-01-12T09:44:44.521Z,97344.53
2023-01-12T09:47:15.278Z,97346.31
2023-01-12T09:49:55.831Z,97345.44
2023-01-12T09:52:46.870Z,97347.97
2023-01-12T09:55:15.222Z,97330.50
2023-01-12T09:58:00.783Z,97347.06
2023-01-12T10:00:30.519Z,97346.34
2023-01-12T10:03:19.538Z,97342.31
2023-01-12T10:05:49.903Z,97351.75
2023-01-12T10:08:18.379Z,97337.81
2023-01-12T10:10:48.857Z,97338.97
2023-01-12T10:13:15.779Z,97340.66
2023-01-12T10:15:46.479Z,97338.00
2023-01-12T10:18:16.179Z,97308.22
2023-01-12T10:20:43.570Z,97308.81
2023-01-12T10:23:11.950Z,97311.19
2023-01-12T10:25:38.712Z,97319.34
2023-01-12T10:28:12.057Z,97311.28
2023-01-12T10:30:39.487Z,97320.78
2023-01-12T10:33:12.365Z,97346.97
2023-01-12T10:35:48.421Z,97317.47
2023-01-12T10:38:21.966Z,97321.69
2023-01-12T10:41:02.232Z,97319.41
2023-01-12T10:43:36.162Z,97324.50
2023-01-12T10:46:09.890Z,97325.38
2023-01-12T10:48:39.009Z,97320.78
2023-01-12T10:51:09.533Z,97329.56
2023-01-12T10:53:43.376Z,97315.13
2023-01-12T10:56:14.647Z,97306.53
2023-01-12T10:58:41.911Z,97321.63
2023-01-12T11:01:10.299Z,97317.47
2023-01-12T11:03:42.478Z,97304.69
2023-01-12T11:06:24.489Z,97342.69
2023-01-12T11:08:51.272Z,97302.22
2023-01-12T11:11:20.915Z,97299.97
2023-01-12T11:13:47.596Z,97315.03
2023-01-12T11:16:14.202Z,97303.50
2023-01-12T11:18:52.022Z,97307.97
2023-01-12T11:21:19.575Z,97296.28
2023-01-12T11:24:00.888Z,97301.34
2023-01-12T11:26:28.842Z,97288.69
2023-01-12T11:28:56.250Z,97298.91
2023-01-12T11:31:24.215Z,97291.19
2023-01-12T11:33:52.535Z,97292.00
2023-01-12T11:36:26.783Z,97287.38
2023-01-12T11:39:25.914Z,97276.91
2023-01-12T11:42:14.121Z,97283.84
2023-01-12T11:44:44.128Z,97268.56
2023-01-12T11:47:10.682Z,97261.66
2023-01-12T11:49:38.357Z,97255.47
2023-01-12T11:52:05.637Z,97249.09
2023-01-12T11:54:32.850Z,97256.00
2023-01-12T11:57:02.239Z,97247.78
2023-01-12T11:59:47.450Z,97265.25
2023-01-12T12:02:14.173Z,97259.22
2023-01-12T12:04:40.803Z,97267.28
2023-01-12T12:07:27.904Z,97250.56
2023-01-12T12:10:04.780Z,97256.03
2023-01-12T12:12:41.565Z,97261.63
2023-01-12T12:15:08.335Z,97252.28
2023-01-12T12:17:53.732Z,97242.34
2023-01-12T12:20:22.604Z,97248.81
2023-01-12T12:23:08.843Z,97249.69
2023-01-12T12:25:53.910Z,97226.66
2023-01-12T12:28:27.180Z,97224.66
2023-01-12T12:31:00.444Z,97239.31
2023-01-12T12:33:40.375Z,97226.38
2023-01-12T12:36:13.196Z,97236.16
2023-01-12T12:38:46.345Z,97220.63
2023-01-12T12:41:50.046Z,97203.50
2023-01-12T12:44:38.900Z,97222.34
2023-01-12T12:47:21.096Z,97223.34
2023-01-12T12:49:47.792Z,97203.63
2023-01-12T12:52:14.424Z,97226.22
2023-01-12T12:54:41.145Z,97208.78
2023-01-12T12:57:07.756Z,97203.91
2023-01-12T12:59:34.413Z,97203.19
2023-01-12T13:02:01.684Z,97203.22
2023-01-12T13:04:40.722Z,97195.44
2023-01-12T13:07:07.420Z,97193.00
2023-01-12T13:09:34.556Z,97200.94
2023-01-12T13:12:01.541Z,97204.38
2023-01-12T13:14:31.845Z,97201.06
2023-01-12T13:17:08.829Z,97214.56
2023-01-12T13:19:39.708Z,97219.00
2023-01-12T13:22:45.068Z,97209.94
2023-01-12T13:25:20.759Z,97217.56
2023-01-12T13:28:13.364Z,97210.25
2023-01-12T13:30:49.732Z,97195.41
2023-01-12T13:33:26.222Z,97210.97
2023-01-12T13:35:52.905Z,97198.44
2023-01-12T13:38:22.319Z,97206.50
2023-01-12T13:40:56.005Z,97198.16
2023-01-12T13:43:24.851Z,97192.97
2023-01-12T13:46:00.661Z,97188.94
2023-01-12T13:48:28.048Z,97187.38
2023-01-12T13:51:05.641Z,97183.75
2023-01-12T13:53:32.473Z,97191.97
2023-01-12T13:55:59.071Z,97186.78
2023-01-12T13:58:25.900Z,97181.13
2023-01-12T14:00:56.616Z,97191.06
2023-01-12T14:03:46.587Z,97186.06
2023-01-12T14:06:13.195Z,97186.94
2023-01-12T14:08:50.631Z,97188.06
2023-01-12T14:11:21.672Z,97189.66
2023-01-12T14:13:57.246Z,97184.75
2023-01-12T14:16:42.448Z,97188.22
2023-01-12T14:19:29.039Z,97182.31
2023-01-12T14:21:57.795Z,97178.72
2023-01-12T14:24:25.101Z,97187.22
2023-01-12T14:26:51.697Z,97185.03
2023-01-12T14:29:18.300Z,97179.13
2023-01-12T14:31:46.071Z,97172.22
2023-01-12T14:34:33.144Z,97180.84
2023-01-12T14:36:59.775Z,97183.28
2023-01-12T14:39:27.578Z,97166.00
2023-01-12T14:42:13.241Z,97158.56
2023-01-12T14:45:05.974Z,97166.63
2023-01-12T14:47:34.996Z,97152.25
2023-01-12T14:50:13.619Z,97149.91
2023-01-12T14:52:44.968Z,97155.66
2023-01-12T14:55:21.227Z,97143.88
2023-01-12T14:57:52.212Z,97137.69
2023-01-12T15:00:20.109Z,97146.06
2023-01-12T15:02:50.813Z,97132.97
2023-01-12T15:05:18.649Z,97133.97
2023-01-12T15:07:58.828Z,97142.63
2023-01-12T15:10:28.584Z,97138.88
2023-01-12T15:12:56.953Z,97127.78
2023-01-12T15:15:24.796Z,97135.56
2023-01-12T15:18:10.918Z,97133.84
2023-01-12T15:20:58.002Z,97130.09
2023-01-12T15:23:45.898Z,97124.91
2023-01-12T15:26:14.625Z,97112.97
2023-01-12T15:28:41.932Z,97115.69
2023-01-12T15:31:38.109Z,97113.84
2023-01-12T15:34:15.617Z,97100.75
2023-01-12T15:39:47.282Z,97117.56
2023-01-12T15:42:17.572Z,97114.28
2023-01-12T15:44:44.787Z,97091.72
2023-01-12T15:47:13.269Z,97101.47
2023-01-12T15:49:40.711Z,97099.31
2023-01-12T15:52:15.007Z,97110.09
2023-01-12T15:54:42.152Z,97125.59
2023-01-12T15:57:12.375Z,97113.81
2023-01-12T15:59:39.273Z,97118.53
2023-01-12T16:02:32.352Z,97100.13
2023-01-12T16:04:59.266Z,97111.63
2023-01-12T16:07:25.944Z,97112.03
2023-01-12T16:09:52.628Z,97101.84
2023-01-12T16:12:19.513Z,97112.22
2023-01-12T16:14:46.515Z,97100.69
2023-01-12T16:17:13.128Z,97099.38
2023-01-12T16:19:42.831Z,97103.13
2023-01-12T16:22:15.668Z,97107.88
2023-01-12T16:24:43.982Z,97107.75
2023-01-12T16:27:10.852Z,97104.72
2023-01-12T16:29:37.768Z,97122.16
2023-01-12T16:32:04.767Z,97099.88
2023-01-12T16:34:32.460Z,97111.53
2023-01-12T16:37:00.637Z,97110.66
2023-01-12T16:39:27.966Z,97110.81
2023-01-12T16:42:00.264Z,97098.56
2023-01-12T16:44:27.588Z,97091.66
2023-01-12T16:46:54.140Z,97118.28
2023-01-12T16:49:20.767Z,97098.94
2023-01-12T16:51:47.356Z,97090.44
2023-01-12T16:54:14.014Z,97083.22
2023-01-12T16:56:40.667Z,97085.66
2023-01-12T16:59:08.003Z,97074.41
2023-01-12T17:01:35.667Z,97070.63
2023-01-12T17:04:02.555Z,97087.91
2023-01-12T17:06:29.663Z,97077.81
2023-01-12T17:08:56.668Z,97087.00
2023-01-12T17:11:27.777Z,97086.56
2023-01-12T17:13:55.457Z,97078.63
2023-01-12T17:16:22.801Z,97109.72
2023-01-12T17:18:50.994Z,97096.91
2023-01-12T17:21:18.980Z,97082.75
2023-01-12T17:23:48.755Z,97079.56
2023-01-12T17:26:19.837Z,97089.34
2023-01-12T17:28:50.325Z,97084.72
2023-01-12T17:31:20.960Z,97082.13
2023-01-12T17:33:47.918Z,97082.97
2023-01-12T17:36:14.647Z,97090.59
2023-01-12T17:38:41.444Z,97086.56
2023-01-12T17:41:32.027Z,97072.28
2023-01-12T17:43:59.006Z,97081.28
2023-01-12T17:46:25.586Z,97085.75
2023-01-12T17:48:52.361Z,97076.13
2023-01-12T17:51:19.201Z,97072.06
2023-01-12T17:53:46.685Z,97093.41
2023-01-12T17:56:13.915Z,97099.13
2023-01-12T17:58:41.508Z,97091.66
2023-01-12T18:01:11.979Z,97079.91
2023-01-12T18:03:38.840Z,97087.13
2023-01-12T18:06:11.957Z,97086.91
2023-01-12T18:08:45.507Z,97091.06
2023-01-12T18:11:12.367Z,97087.63
2023-01-12T18:13:41.331Z,97088.31
2023-01-12T18:16:09.551Z,97109.53
2023-01-12T18:18:38.008Z,97083.28
2023-01-12T18:21:05.519Z,97065.56
2023-01-12T18:23:32.185Z,97078.09
2023-01-12T18:26:05.372Z,97076.31
2023-01-12T18:28:32.231Z,97064.91
2023-01-12T18:31:04.816Z,97062.91
2023-01-12T18:33:31.549Z,97070.53
2023-01-12T18:35:58.377Z,97062.41
2023-01-12T18:38:26.844Z,97048.16
2023-01-12T18:41:12.528Z,97059.81
2023-01-12T18:43:41.187Z,97068.03
2023-01-12T18:46:12.240Z,97064.00
2023-01-12T18:48:38.880Z,97061.97
2023-01-12T18:51:24.171Z,97067.44
2023-01-12T18:53:50.847Z,97060.66
2023-01-12T18:56:17.606Z,97060.06
2023-01-12T18:58:45.443Z,97056.03
2023-01-12T19:01:18.325Z,97062.22
2023-01-12T19:03:45.083Z,97038.41
2023-01-12T19:06:31.340Z,97038.53
2023-01-12T19:09:16.602Z,97050.78
2023-01-12T19:11:43.260Z,97053.53
2023-01-12T19:14:28.522Z,97053.53
2023-01-12T19:17:13.911Z,97053.53
2023-01-12T19:23:28.262Z,97061.13
2023-01-12T19:26:19.603Z,97058.03
2023-01-12T19:28:46.645Z,97057.97
2023-01-12T19:31:15.806Z,97048.25
2023-01-12T19:33:43.014Z,97053.63
2023-01-12T19:36:14.136Z,97045.91
2023-01-12T19:38:44.512Z,97042.88
2023-01-12T19:41:13.335Z,97037.34
2023-01-12T19:43:46.191Z,97050.78
2023-01-12T19:46:18.044Z,97041.16
2023-01-12T19:48:46.245Z,97038.44
2023-01-12T19:51:12.991Z,97051.53
2023-01-12T19:53:40.982Z,97043.78
2023-01-12T19:56:12.637Z,97025.50
2023-01-12T19:58:40.838Z,97021.22
2023-01-12T20:01:11.275Z,97031.28
2023-01-12T20:03:44.624Z,97012.88
2023-01-12T20:06:11.571Z,97024.25
2023-01-12T20:08:38.722Z,97013.03
2023-01-12T20:11:07.027Z,97004.69
2023-01-12T20:13:34.586Z,96991.03
2023-01-12T20:16:09.468Z,97000.69
2023-01-12T20:18:36.572Z,96996.47
2023-01-12T20:21:08.128Z,96999.38
2023-01-12T20:23:35.006Z,96992.47
2023-01-12T20:26:01.975Z,96999.97
2023-01-12T20:28:29.583Z,96989.75
2023-01-12T20:30:58.060Z,96991.59
2023-01-12T20:33:26.409Z,96987.31
2023-01-12T20:35:53.704Z,96978.38
2023-01-12T20:38:22.657Z,96978.53
2023-01-12T20:40:49.968Z,96970.91
2023-01-12T20:43:16.753Z,96977.09
2023-01-12T20:45:44.283Z,96980.53
2023-01-12T20:48:13.670Z,96971.63
2023-01-12T20:50:45.095Z,96954.06
2023-01-12T20:53:12.871Z,96962.25
2023-01-12T20:55:50.117Z,96958.38
2023-01-12T20:58:17.593Z,96957.66
2023-01-12T21:00:44.563Z,96955.66
2023-01-12T21:03:11.426Z,96957.09
2023-01-12T21:05:43.066Z,96954.47
2023-01-12T21:08:10.642Z,96945.00
2023-01-12T21:10:38.268Z,96950.31
2023-01-12T21:13:06.159Z,96963.97
2023-01-12T21:15:35.083Z,96953.75
2023-01-12T21:18:02.776Z,96965.41
2023-01-12T21:20:29.483Z,96962.84
2023-01-12T21:22:56.401Z,96970.31
2023-01-12T21:25:27.797Z,96963.38
2023-01-12T21:27:56.557Z,96962.69
2023-01-12T21:30:27.378Z,96956.25
2023-01-12T21:32:56.646Z,96956.38
2023-01-12T21:35:25.346Z,96957.66
2023-01-12T21:37:52.346Z,96964.13
2023-01-12T21:40:20.911Z,96952.03
2023-01-12T21:43:06.426Z,96944.53
2023-01-12T21:45:36.139Z,96948.00
2023-01-12T21:48:04.226Z,96946.72
2023-01-12T21:50:33.039Z,96963.13
2023-01-12T21:53:00.689Z,96965.97
2023-01-12T21:55:28.220Z,96940.78
2023-01-12T21:57:55.519Z,96948.44
2023-01-12T22:00:22.987Z,96946.97
2023-01-12T22:02:51.223Z,96954.44
2023-01-12T22:05:18.578Z,96947.13
2023-01-12T22:07:48.392Z,96949.97
2023-01-12T22:10:19.176Z,96956.16
2023-01-12T22:12:47.221Z,96947.38
2023-01-12T22:15:14.532Z,96942.66
2023-01-12T22:17:41.984Z,96952.84
2023-01-12T22:20:10.068Z,96953.59
2023-01-12T22:22:40.429Z,96941.34
2023-01-12T22:25:09.487Z,96938.03
2023-01-12T22:27:36.957Z,96935.28
2023-01-12T22:30:05.426Z,96934.56
2023-01-12T22:32:32.187Z,96920.19
2023-01-12T22:34:59.015Z,96931.25
2023-01-12T22:37:26.746Z,96932.69
2023-01-12T22:39:53.504Z,96938.16
2023-01-12T22:42:21.867Z,96931.13
2023-01-12T22:44:48.660Z,96937.31
2023-01-12T22:47:16.197Z,96934.00
2023-01-12T22:49:43.513Z,96924.22
2023-01-12T22:52:10.613Z,96939.75
2023-01-12T22:54:39.615Z,96913.84
2023-01-12T22:57:06.840Z,96914.00
2023-01-12T22:59:33.550Z,96922.94
2023-01-12T23:02:20.448Z,96927.97
2023-01-12T23:04:47.577Z,96916.44
2023-01-12T23:07:14.648Z,96897.41
2023-01-12T23:09:42.042Z,96885.78
2023-01-12T23:12:09.158Z,96893.13
2023-01-12T23:14:36.569Z,96876.59
2023-01-12T23:17:03.787Z,96895.88
2023-01-12T23:19:31.122Z,96890.53
2023-01-12T23:22:01.133Z,96906.94
2023-01-12T23:24:28.616Z,96890.41
2023-01-12T23:26:55.517Z,96880.50
2023-01-12T23:29:22.435Z,96889.41
2023-01-12T23:31:49.502Z,96903.06
2023-01-12T23:34:16.321Z,96905.22
2023-01-12T23:36:43.114Z,96894.28
2023-01-12T23:39:11.224Z,96901.19
2023-01-12T23:41:38.259Z,96899.88
2023-01-12T23:44:08.317Z,96896.44
2023-01-12T23:46:37.831Z,96903.19
2023-01-12T23:49:05.707Z,96900.47
2023-01-12T23:51:33.102Z,96875.16
2023-01-12T23:54:01.107Z,96867.53
2023-01-12T23:56:29.862Z,96848.25
2023-01-12T23:58:56.833Z,96866.81
